Time;durP1;ratioP1;P1;durP2;ratioP2;P2;SDS_P1;SDS_P2;PMS_P1;PMS_P2;Temp;Humidity;BMP_temperature;BMP_pressure;BME280_temperature;BME280_humidity;BME280_pressure;Samples;Min_cycle;Max_cycle;Signal;HPM_P1;HPM_P2
2022/06/15 00:00:34;;;;;;;6.18;2.50;;;19.90;70.90;;;;;;5054062;28;20029;-62
2022/06/15 00:03:00;;;;;;;10.20;3.33;;;19.90;70.30;;;;;;5053660;28;20120;-61
2022/06/15 00:05:26;;;;;;;7.25;2.67;;;19.90;70.60;;;;;;5053759;28;20465;-64
2022/06/15 00:07:52;;;;;;;6.15;2.58;;;19.80;70.70;;;;;;5053785;28;20378;-62
2022/06/15 00:10:19;;;;;;;10.48;3.03;;;19.90;71.70;;;;;;5054069;28;20462;-62
2022/06/15 00:12:44;;;;;;;8.30;2.70;;;19.80;70.60;;;;;;5053745;28;20025;-62
2022/06/15 00:15:11;;;;;;;6.45;2.20;;;19.80;70.40;;;;;;5053508;28;20053;-64
2022/06/15 00:17:36;;;;;;;5.18;2.38;;;19.80;70.30;;;;;;5053699;28;20052;-62
2022/06/15 00:20:03;;;;;;;5.35;2.47;;;19.80;70.20;;;;;;5053654;28;20056;-65
2022/06/15 00:22:29;;;;;;;5.40;2.45;;;19.90;69.70;;;;;;5053690;28;20028;-62
2022/06/15 00:24:54;;;;;;;6.85;2.47;;;19.80;69.80;;;;;;5053772;28;20029;-65
2022/06/15 00:27:20;;;;;;;5.28;2.60;;;19.80;69.90;;;;;;5054008;28;20074;-68
2022/06/15 00:29:45;;;;;;;8.20;2.63;;;19.70;70.60;;;;;;5053310;28;20121;-65
2022/06/15 00:32:11;;;;;;;5.95;2.42;;;19.70;70.10;;;;;;5053601;28;20028;-65
2022/06/15 00:34:37;;;;;;;5.55;2.92;;;19.70;69.90;;;;;;5053176;28;20048;-61
2022/06/15 00:37:05;;;;;;;7.88;3.45;;;19.80;70.10;;;;;;5053321;28;20024;-61
2022/06/15 00:39:32;;;;;;;5.53;2.78;;;19.70;70.10;;;;;;5053266;28;20018;-62
2022/06/15 00:41:59;;;;;;;9.07;2.75;;;19.70;70.10;;;;;;5053393;28;20091;-61
2022/06/15 00:44:24;;;;;;;4.45;3.17;;;19.70;70.20;;;;;;5053028;28;20028;-68
2022/06/15 00:47:00;;;;;;;12.00;2.72;;;19.70;70.20;;;;;;5053185;28;20029;-65
2022/06/15 00:49:36;;;;;;;5.85;2.72;;;19.60;70.60;;;;;;5053176;28;20017;-63
2022/06/15 00:52:13;;;;;;;9.45;3.05;;;19.60;70.60;;;;;;5053126;28;20025;-66
2022/06/15 00:54:39;;;;;;;6.43;2.88;;;19.60;70.70;;;;;;5052956;28;20103;-63
2022/06/15 00:57:05;;;;;;;5.18;2.58;;;19.60;70.60;;;;;;5051433;28;20060;-62
2022/06/15 00:59:33;;;;;;;4.22;2.35;;;19.60;70.90;;;;;;5052261;28;20021;-62
2022/06/15 01:01:59;;;;;;;9.90;3.35;;;19.50;71.10;;;;;;5050681;28;20025;-63
2022/06/15 01:04:30;;;;;;;6.40;2.65;;;19.50;71.10;;;;;;5052927;28;20040;-62
2022/06/15 01:07:27;;;;;;;8.68;3.47;;;19.50;71.10;;;;;;5052944;28;20021;-67
2022/06/15 01:10:40;;;;;;;6.28;2.70;;;19.40;71.20;;;;;;5052839;28;20049;-65
2022/06/15 01:13:42;;;;;;;8.80;3.30;;;19.50;71.40;;;;;;5045731;28;20047;-64
2022/06/15 01:16:41;;;;;;;8.10;2.97;;;19.40;71.90;;;;;;5052392;28;20140;-63
2022/06/15 01:19:28;;;;;;;4.72;2.50;;;19.30;71.40;;;;;;5045116;28;20111;-62
2022/06/15 01:22:07;;;;;;;6.40;3.08;;;19.30;71.50;;;;;;5052745;28;20035;-68
2022/06/15 01:24:38;;;;;;;7.45;3.05;;;19.30;71.80;;;;;;5052825;28;20029;-63
2022/06/15 01:27:41;;;;;;;4.32;2.58;;;19.30;71.80;;;;;;5052792;28;20170;-63
2022/06/15 01:30:20;;;;;;;8.65;3.67;;;19.20;72.00;;;;;;5052595;28;20025;-69
2022/06/15 01:33:04;;;;;;;6.35;3.10;;;19.20;72.10;;;;;;5052602;28;20347;-63
2022/06/15 01:35:45;;;;;;;7.10;3.28;;;19.30;71.90;;;;;;5054803;28;20037;-68
2022/06/15 01:38:23;;;;;;;7.97;2.88;;;19.10;72.20;;;;;;5056897;28;20021;-63
2022/06/15 01:41:09;;;;;;;7.22;3.13;;;19.20;72.30;;;;;;5056516;28;20377;-62
2022/06/15 01:43:52;;;;;;;6.18;2.85;;;19.10;72.40;;;;;;5056663;28;20029;-64
2022/06/15 01:46:19;;;;;;;4.38;2.58;;;19.10;72.50;;;;;;5056347;28;20021;-69
2022/06/15 01:48:47;;;;;;;8.27;3.50;;;19.10;72.60;;;;;;5056647;28;20474;-68
2022/06/15 01:51:20;;;;;;;6.45;3.17;;;19.10;72.80;;;;;;5056303;28;20024;-65
2022/06/15 01:53:59;;;;;;;10.70;3.20;;;19.10;73.00;;;;;;5056483;28;20025;-64
2022/06/15 01:56:30;;;;;;;7.90;3.75;;;19.10;73.10;;;;;;5056399;28;20103;-66
2022/06/15 01:59:09;;;;;;;10.48;3.40;;;19.10;73.10;;;;;;5056312;28;20488;-67
2022/06/15 02:01:45;;;;;;;8.15;3.45;;;19.10;73.30;;;;;;5055930;28;20474;-67
2022/06/15 02:04:41;;;;;;;7.65;3.15;;;19.10;73.40;;;;;;5056293;28;20021;-63
2022/06/15 02:07:50;;;;;;;8.93;3.50;;;19.00;73.50;;;;;;5056218;28;20091;-63
2022/06/15 02:10:24;;;;;;;7.90;3.47;;;19.00;73.80;;;;;;5015183;28;20171;-62
2022/06/15 02:12:56;;;;;;;7.75;3.72;;;18.90;74.10;;;;;;5056461;28;20035;-62
2022/06/15 02:15:28;;;;;;;9.00;3.42;;;18.80;74.40;;;;;;5055380;28;20183;-63
2022/06/15 02:17:57;;;;;;;8.03;3.90;;;18.80;74.60;;;;;;5056128;28;20024;-62
2022/06/15 02:20:33;;;;;;;7.32;4.28;;;18.80;74.80;;;;;;5055944;28;20025;-69
2022/06/15 02:23:02;;;;;;;7.30;4.18;;;18.80;74.80;;;;;;5056039;28;20021;-65
2022/06/15 02:25:33;;;;;;;7.65;3.85;;;18.80;74.90;;;;;;5055793;28;20029;-68
2022/06/15 02:28:00;;;;;;;7.38;4.00;;;18.70;75.10;;;;;;5055725;28;20473;-64
2022/06/15 02:30:28;;;;;;;12.07;3.78;;;18.70;75.30;;;;;;5055459;28;20533;-61
2022/06/15 02:32:54;;;;;;;9.38;4.10;;;18.70;75.50;;;;;;5055813;28;20021;-65
2022/06/15 02:35:21;;;;;;;12.77;4.88;;;18.60;75.60;;;;;;5055628;28;20370;-62
2022/06/15 02:37:49;;;;;;;6.50;3.92;;;18.60;75.90;;;;;;5055374;28;20470;-66
2022/06/15 02:40:18;;;;;;;12.38;4.35;;;18.60;76.00;;;;;;5055678;28;20029;-66
2022/06/15 02:42:47;;;;;;;8.23;4.18;;;18.60;76.30;;;;;;5055589;28;20032;-61
2022/06/15 02:45:35;;;;;;;6.25;3.45;;;18.50;76.40;;;;;;5055521;28;20037;-62
2022/06/15 02:48:01;;;;;;;6.45;3.75;;;18.50;76.70;;;;;;5037552;28;20021;-66
2022/06/15 02:50:31;;;;;;;7.15;4.22;;;18.50;76.90;;;;;;5055590;28;20100;-62
2022/06/15 02:53:09;;;;;;;8.27;3.83;;;18.40;77.20;;;;;;5055073;28;20032;-62
2022/06/15 02:55:35;;;;;;;10.40;4.55;;;18.50;77.00;;;;;;5055237;28;20036;-61
2022/06/15 02:58:11;;;;;;;7.38;4.30;;;18.50;77.20;;;;;;5054815;28;20048;-68
2022/06/15 03:00:37;;;;;;;8.40;3.90;;;18.40;78.30;;;;;;5055155;28;20021;-67
2022/06/15 03:03:03;;;;;;;11.00;4.20;;;18.40;77.70;;;;;;5054911;28;20543;-65
2022/06/15 03:05:29;;;;;;;10.93;4.15;;;18.40;77.50;;;;;;5055378;28;20021;-61
2022/06/15 03:07:55;;;;;;;5.30;3.47;;;18.40;77.70;;;;;;5055006;28;20386;-67
2022/06/15 03:10:20;;;;;;;6.97;3.60;;;18.40;77.60;;;;;;5055126;28;20156;-61
2022/06/15 03:12:46;;;;;;;7.32;4.10;;;18.40;77.50;;;;;;5054537;28;20017;-67
2022/06/15 03:15:12;;;;;;;7.85;3.55;;;18.40;77.30;;;;;;5054816;28;20056;-62
2022/06/15 03:17:37;;;;;;;9.23;3.78;;;18.30;77.50;;;;;;5054732;28;20021;-67
2022/06/15 03:20:03;;;;;;;5.93;3.45;;;18.40;77.20;;;;;;5054949;28;20029;-62
2022/06/15 03:22:32;;;;;;;8.45;3.67;;;18.40;77.20;;;;;;5036905;28;20028;-69
2022/06/15 03:24:58;;;;;;;13.38;4.28;;;18.30;77.20;;;;;;5054644;28;20017;-70
2022/06/15 03:27:24;;;;;;;6.95;3.40;;;18.40;77.10;;;;;;5054494;28;20104;-66
2022/06/15 03:29:50;;;;;;;8.57;3.55;;;18.50;76.40;;;;;;5054815;28;20029;-64
2022/06/15 03:32:16;;;;;;;5.97;2.95;;;18.70;75.80;;;;;;5054528;28;20039;-70
2022/06/15 03:34:42;;;;;;;6.55;3.30;;;18.80;75.40;;;;;;5054595;28;20064;-68
2022/06/15 03:37:09;;;;;;;6.28;3.10;;;18.90;75.10;;;;;;5036539;28;20424;-65
2022/06/15 03:39:35;;;;;;;6.72;3.50;;;18.90;75.60;;;;;;5054606;28;20043;-71
2022/06/15 03:42:14;;;;;;;7.32;3.45;;;18.90;75.00;;;;;;5054001;28;20367;-64
2022/06/15 03:44:41;;;;;;;8.13;3.30;;;18.80;75.00;;;;;;5054509;28;20025;-69
2022/06/15 03:47:10;;;;;;;8.93;3.55;;;18.90;75.10;;;;;;5054217;28;20029;-71
2022/06/15 03:49:36;;;;;;;7.55;3.50;;;18.90;74.90;;;;;;5054326;28;20430;-71
2022/06/15 03:52:01;;;;;;;6.15;2.83;;;18.90;74.80;;;;;;5054062;28;20108;-64
2022/06/15 03:54:27;;;;;;;3.80;2.95;;;18.80;74.80;;;;;;5054233;28;20493;-69
2022/06/15 03:56:52;;;;;;;5.05;3.22;;;18.80;74.90;;;;;;5053816;28;20017;-65
2022/06/15 03:59:18;;;;;;;7.18;3.15;;;18.90;74.70;;;;;;5053575;28;20064;-69
2022/06/15 04:01:43;;;;;;;8.52;3.33;;;18.80;74.70;;;;;;5054095;28;20021;-70
2022/06/15 04:04:09;;;;;;;6.50;2.95;;;18.80;74.70;;;;;;5053955;28;20025;-69
2022/06/15 04:06:35;;;;;;;9.43;3.60;;;18.80;74.70;;;;;;5053933;28;20421;-64
2022/06/15 04:09:00;;;;;;;6.97;2.97;;;18.80;74.80;;;;;;5054161;28;20096;-68
2022/06/15 04:14:10;;;;;;;6.63;2.80;;;18.80;74.70;;;;;;5053901;28;20039;-69
2022/06/15 04:16:36;;;;;;;5.72;3.13;;;18.70;74.90;;;;;;5053580;28;20037;-66
2022/06/15 04:19:06;;;;;;;9.00;2.90;;;18.70;74.90;;;;;;5053771;28;20028;-69
2022/06/15 04:21:33;;;;;;;6.28;2.92;;;18.70;74.90;;;;;;5053911;28;20044;-64
2022/06/15 04:23:58;;;;;;;7.03;3.00;;;18.70;75.00;;;;;;5053734;28;20020;-64
2022/06/15 04:26:24;;;;;;;5.63;2.75;;;18.80;75.00;;;;;;5053386;28;20033;-65
2022/06/15 04:28:49;;;;;;;7.57;3.25;;;18.70;75.10;;;;;;5053350;28;20021;-64
2022/06/15 04:31:15;;;;;;;5.65;3.28;;;18.70;75.20;;;;;;5053633;28;20033;-67
2022/06/15 04:33:41;;;;;;;6.38;3.17;;;18.60;75.50;;;;;;5053446;28;20057;-64
2022/06/15 04:36:07;;;;;;;5.13;3.03;;;18.50;75.90;;;;;;5053472;28;20462;-64
2022/06/15 04:38:32;;;;;;;5.60;3.25;;;18.60;75.90;;;;;;5053483;28;20024;-65
2022/06/15 04:40:58;;;;;;;5.93;3.65;;;18.50;76.10;;;;;;5053147;28;20029;-65
2022/06/15 04:43:24;;;;;;;8.43;3.42;;;18.60;76.30;;;;;;5053249;28;20021;-64
2022/06/15 04:45:49;;;;;;;6.95;3.55;;;18.50;76.30;;;;;;5053598;28;20116;-70
2022/06/15 04:48:15;;;;;;;7.70;3.40;;;18.50;76.80;;;;;;5053201;28;20466;-69
2022/06/15 04:50:42;;;;;;;5.63;3.10;;;18.50;77.40;;;;;;5053391;28;20135;-64
2022/06/15 04:53:07;;;;;;;5.68;3.15;;;18.60;76.80;;;;;;5053036;28;20535;-67
2022/06/15 04:55:34;;;;;;;7.70;3.63;;;18.60;76.80;;;;;;5052586;28;20120;-64
2022/06/15 04:58:00;;;;;;;8.85;3.80;;;18.60;76.90;;;;;;5053316;28;20032;-68
2022/06/15 05:00:36;;;;;;;6.78;3.60;;;18.50;77.00;;;;;;5050892;28;20041;-66
2022/06/15 05:03:02;;;;;;;10.80;3.50;;;18.50;76.90;;;;;;5048755;28;20106;-66
2022/06/15 05:05:28;;;;;;;9.23;3.67;;;18.50;77.20;;;;;;5051830;28;20029;-66
2022/06/15 05:07:54;;;;;;;7.75;3.72;;;18.60;77.30;;;;;;5050668;28;20497;-64
2022/06/15 05:10:22;;;;;;;9.82;3.97;;;18.50;77.40;;;;;;5052855;28;20036;-69
2022/06/15 05:12:48;;;;;;;10.82;4.40;;;18.50;77.30;;;;;;5053044;28;20435;-67
2022/06/15 05:15:15;;;;;;;8.13;3.60;;;18.50;77.70;;;;;;5034683;28;20473;-65
2022/06/15 05:17:42;;;;;;;12.07;4.28;;;18.60;77.50;;;;;;5053000;28;20025;-71
2022/06/15 05:20:09;;;;;;;10.00;4.00;;;18.50;77.40;;;;;;5052690;28;20017;-65
2022/06/15 05:22:36;;;;;;;7.45;4.15;;;18.50;77.70;;;;;;5052632;28;20390;-67
2022/06/15 05:25:03;;;;;;;11.57;4.10;;;18.60;77.80;;;;;;5052874;28;20017;-68
2022/06/15 05:27:30;;;;;;;10.05;3.83;;;18.60;78.00;;;;;;5049841;28;20017;-68
2022/06/15 05:29:56;;;;;;;13.98;3.97;;;18.50;77.90;;;;;;5047404;28;20025;-68
2022/06/15 05:32:21;;;;;;;8.43;4.47;;;18.60;77.90;;;;;;5051483;28;20370;-68
2022/06/15 05:34:47;;;;;;;9.85;4.15;;;18.60;77.80;;;;;;5045213;28;20490;-65
2022/06/15 05:37:12;;;;;;;9.63;3.88;;;18.70;78.10;;;;;;5049888;28;20445;-66
2022/06/15 05:39:38;;;;;;;9.75;3.95;;;18.80;78.50;;;;;;5051612;28;20110;-64
2022/06/15 05:42:04;;;;;;;10.13;3.90;;;18.90;78.70;;;;;;5030354;28;20377;-68
2022/06/15 05:47:05;;;;;;;10.27;4.07;;;19.20;78.10;;;;;;5049265;28;20507;-68
2022/06/15 05:49:31;;;;;;;6.55;3.53;;;19.40;77.00;;;;;;5050937;28;20028;-69
2022/06/15 05:51:56;;;;;;;15.15;4.53;;;19.50;76.80;;;;;;5038392;28;20048;-70
2022/06/15 05:54:22;;;;;;;9.38;3.53;;;19.60;76.60;;;;;;5042516;28;20084;-70
2022/06/15 05:56:48;;;;;;;8.10;3.25;;;19.70;76.20;;;;;;5048859;28;20044;-70
2022/06/15 05:59:13;;;;;;;11.38;4.13;;;19.80;76.10;;;;;;5033053;28;20111;-72
2022/06/15 06:01:39;;;;;;;9.88;3.70;;;19.90;75.00;;;;;;5036367;28;20033;-74
2022/06/15 06:04:05;;;;;;;10.52;3.65;;;20.00;74.80;;;;;;5033981;28;20017;-70
2022/06/15 06:06:32;;;;;;;7.75;4.07;;;20.00;75.00;;;;;;5048669;28;20116;-70
2022/06/15 06:08:59;;;;;;;9.50;4.07;;;20.10;75.00;;;;;;5047197;28;20033;-72
2022/06/15 06:11:25;;;;;;;8.05;3.38;;;20.20;75.00;;;;;;5025995;28;20116;-73
2022/06/15 06:13:51;;;;;;;12.30;3.40;;;20.30;75.10;;;;;;5051326;28;20032;-69
2022/06/15 06:16:18;;;;;;;10.07;3.42;;;20.30;75.00;;;;;;5051494;28;20095;-70
2022/06/15 06:18:43;;;;;;;9.45;4.13;;;20.40;74.00;;;;;;5052156;28;20013;-71
2022/06/15 06:21:09;;;;;;;8.68;3.75;;;20.50;73.30;;;;;;5053343;28;20032;-71
2022/06/15 06:23:36;;;;;;;10.45;4.03;;;20.60;73.30;;;;;;5054997;28;20516;-71
2022/06/15 06:26:04;;;;;;;10.75;3.60;;;20.70;72.10;;;;;;5055854;28;20131;-68
2022/06/15 06:28:33;;;;;;;14.00;3.78;;;20.80;72.10;;;;;;5055734;28;20054;-68
2022/06/15 06:31:01;;;;;;;13.48;4.72;;;20.90;71.80;;;;;;5055457;28;20021;-73
2022/06/15 06:33:32;;;;;;;7.85;4.18;;;21.00;71.50;;;;;;5055077;28;20029;-70
2022/06/15 06:36:00;;;;;;;14.77;4.10;;;21.10;71.20;;;;;;5054675;28;20055;-69
2022/06/15 06:38:26;;;;;;;9.13;3.50;;;21.20;70.60;;;;;;5055041;28;20013;-68
2022/06/15 06:40:54;;;;;;;9.77;3.40;;;21.20;70.60;;;;;;5054858;28;20037;-74
2022/06/15 06:43:20;;;;;;;7.45;3.80;;;21.30;70.40;;;;;;5055110;28;20024;-74
2022/06/15 06:45:46;;;;;;;5.80;2.42;;;21.30;70.50;;;;;;5052044;28;20033;-68
2022/06/15 06:48:11;;;;;;;7.45;2.60;;;21.40;70.80;;;;;;5055726;28;20013;-74
2022/06/15 06:50:39;;;;;;;12.68;3.50;;;21.40;71.20;;;;;;5054791;28;20029;-73
2022/06/15 06:53:05;;;;;;;7.95;2.25;;;21.40;71.00;;;;;;5055053;28;20173;-73
2022/06/15 06:55:31;;;;;;;10.93;4.05;;;21.40;70.90;;;;;;5053847;28;20058;-71
2022/06/15 06:57:59;;;;;;;9.02;2.83;;;21.60;69.80;;;;;;5055227;28;20021;-72
2022/06/15 07:00:25;;;;;;;8.93;3.95;;;21.70;69.40;;;;;;5055362;28;20024;-71
2022/06/15 07:02:51;;;;;;;10.63;3.47;;;21.80;69.10;;;;;;5055260;28;20090;-71
2022/06/15 07:05:17;;;;;;;7.10;2.00;;;21.80;68.80;;;;;;5055106;28;20482;-74
2022/06/15 07:07:43;;;;;;;10.27;2.72;;;21.90;69.60;;;;;;5055099;28;20025;-74
2022/06/15 07:10:09;;;;;;;6.97;2.05;;;21.90;69.60;;;;;;5055186;28;20059;-74
2022/06/15 07:12:36;;;;;;;17.95;2.90;;;22.00;69.50;;;;;;5055252;28;20032;-70
2022/06/15 07:15:06;;;;;;;7.55;3.17;;;22.00;69.70;;;;;;5054793;28;20485;-70
2022/06/15 07:17:31;;;;;;;10.77;3.65;;;22.00;69.40;;;;;;5054083;28;20025;-68
2022/06/15 07:19:57;;;;;;;8.90;2.53;;;22.10;69.00;;;;;;5054442;28;20028;-75
2022/06/15 07:22:23;;;;;;;8.48;3.33;;;22.10;69.30;;;;;;5050994;28;20048;-74
2022/06/15 07:24:49;;;;;;;9.82;2.75;;;22.20;68.30;;;;;;5039729;28;20084;-74
2022/06/15 07:27:16;;;;;;;10.27;3.33;;;22.30;68.40;;;;;;5039323;28;20037;-72
2022/06/15 07:29:43;;;;;;;8.32;2.20;;;22.40;67.80;;;;;;5040269;28;20021;-75
2022/06/15 07:32:09;;;;;;;7.40;2.40;;;22.40;67.50;;;;;;5045909;28;20451;-74
2022/06/15 07:34:35;;;;;;;6.03;2.47;;;22.50;67.40;;;;;;5034281;28;20107;-74
2022/06/15 07:37:01;;;;;;;9.70;3.08;;;22.60;67.20;;;;;;5049393;28;20473;-75
2022/06/15 07:39:28;;;;;;;8.20;2.90;;;22.70;66.80;;;;;;5048894;28;20454;-73
2022/06/15 07:41:55;;;;;;;7.05;2.20;;;22.80;65.90;;;;;;5034223;28;20021;-74
2022/06/15 07:44:22;;;;;;;9.35;3.00;;;22.80;66.80;;;;;;5038134;28;20053;-75
2022/06/15 07:46:48;;;;;;;6.78;2.30;;;22.80;66.60;;;;;;5016531;28;20025;-72
2022/06/15 07:52:03;;;;;;;10.13;2.55;;;22.80;66.80;;;;;;5053122;28;20044;-75
2022/06/15 07:54:29;;;;;;;8.73;2.45;;;22.80;67.10;;;;;;5052113;28;20441;-74
2022/06/15 07:56:56;;;;;;;6.13;2.15;;;22.90;66.90;;;;;;5042395;28;20105;-74
2022/06/15 07:59:22;;;;;;;6.53;2.10;;;22.90;66.90;;;;;;5051083;28;20045;-72
2022/06/15 08:01:49;;;;;;;5.68;2.88;;;23.00;66.70;;;;;;5051454;28;20035;-72
2022/06/15 08:04:16;;;;;;;9.05;2.15;;;23.10;65.80;;;;;;5053890;28;20488;-67
2022/06/15 08:06:43;;;;;;;8.63;2.70;;;23.10;66.10;;;;;;5048416;28;20022;-72
2022/06/15 08:09:10;;;;;;;8.43;3.03;;;23.10;66.10;;;;;;5034240;28;20029;-75
2022/06/15 08:11:37;;;;;;;6.25;2.42;;;23.30;65.30;;;;;;5033868;28;20034;-75
2022/06/15 08:14:04;;;;;;;6.80;2.88;;;23.30;65.30;;;;;;5053109;28;20051;-72
2022/06/15 08:16:30;;;;;;;7.43;2.42;;;23.40;64.90;;;;;;5053397;28;20048;-74
2022/06/15 08:19:01;;;;;;;6.93;2.25;;;23.40;65.20;;;;;;5047638;28;20034;-70
2022/06/15 08:21:31;;;;;;;7.15;2.30;;;23.40;65.10;;;;;;5033580;28;20060;-72
2022/06/15 08:23:58;;;;;;;9.20;2.40;;;23.40;64.60;;;;;;5039374;28;20066;-70
2022/06/15 08:26:30;;;;;;;7.47;1.70;;;23.50;64.00;;;;;;5042339;28;20578;-69
2022/06/15 08:29:00;;;;;;;6.32;2.10;;;23.40;64.70;;;;;;5033551;28;20033;-69
2022/06/15 08:31:26;;;;;;;8.13;2.42;;;23.50;63.80;;;;;;5033473;28;20032;-70
2022/06/15 08:33:52;;;;;;;3.90;1.63;;;23.50;64.00;;;;;;5047239;28;20041;-74
2022/06/15 08:36:18;;;;;;;5.72;1.88;;;23.50;64.30;;;;;;5033500;28;20033;-74
2022/06/15 08:38:44;;;;;;;9.20;2.35;;;23.50;63.60;;;;;;5044731;28;20488;-71
2022/06/15 08:41:36;;;;;;;5.82;1.75;;;23.60;63.40;;;;;;5044666;28;20128;-67
2022/06/15 08:44:16;;;;;;;5.22;1.95;;;23.50;64.30;;;;;;5043247;28;20455;-71
2022/06/15 08:47:07;;;;;;;7.18;2.22;;;23.60;63.70;;;;;;5052612;28;20490;-69
2022/06/15 08:50:06;;;;;;;6.35;2.00;;;23.70;62.30;;;;;;5049006;28;20104;-74
2022/06/15 08:52:44;;;;;;;8.82;2.60;;;23.70;61.40;;;;;;5040443;28;20116;-72
2022/06/15 08:55:36;;;;;;;7.70;2.10;;;24.00;60.10;;;;;;5040252;28;20037;-69
2022/06/15 08:58:21;;;;;;;12.45;2.33;;;24.00;61.20;;;;;;5038065;28;20382;-68
2022/06/15 09:00:51;;;;;;;10.63;2.78;;;24.00;60.20;;;;;;5047143;28;20513;-72
2022/06/15 09:03:29;;;;;;;7.40;1.77;;;24.10;60.20;;;;;;5052314;28;20025;-71
2022/06/15 09:06:12;;;;;;;9.13;2.33;;;23.90;61.90;;;;;;5032227;28;20490;-72
2022/06/15 09:09:02;;;;;;;7.82;2.20;;;24.10;59.70;;;;;;5041823;28;20134;-70
2022/06/15 09:11:46;;;;;;;7.45;2.10;;;24.00;60.50;;;;;;5040013;28;20017;-75
2022/06/15 09:14:26;;;;;;;8.23;1.80;;;24.10;59.90;;;;;;5053879;28;20021;-75
2022/06/15 09:16:59;;;;;;;8.65;2.30;;;24.00;61.50;;;;;;5041024;28;20068;-71
2022/06/15 09:19:45;;;;;;;5.82;2.03;;;24.00;61.80;;;;;;5037700;28;20033;-72
2022/06/15 09:22:22;;;;;;;8.48;2.13;;;24.10;61.90;;;;;;5049637;28;20037;-71
2022/06/15 09:24:56;;;;;;;5.57;2.53;;;24.00;61.80;;;;;;5047464;28;20513;-71
2022/06/15 09:27:32;;;;;;;7.15;2.10;;;24.00;60.90;;;;;;5031796;28;20116;-73
2022/06/15 09:30:11;;;;;;;9.00;2.90;;;23.90;62.40;;;;;;5050734;28;20140;-74
2022/06/15 09:32:55;;;;;;;11.93;2.20;;;24.00;62.20;;;;;;5049167;28;20029;-75
2022/06/15 09:35:35;;;;;;;10.45;1.90;;;23.80;62.90;;;;;;5046932;28;20044;-73
2022/06/15 09:38:04;;;;;;;8.02;2.80;;;23.90;62.10;;;;;;5047580;28;20383;-72
2022/06/15 09:40:41;;;;;;;4.65;2.22;;;24.00;61.40;;;;;;5028405;28;20421;-74
2022/06/15 09:43:40;;;;;;;7.93;3.33;;;24.00;60.70;;;;;;5048083;28;20017;-71
2022/06/15 09:46:18;;;;;;;112.00;8.68;;;24.00;59.00;;;;;;5046449;28;20034;-73
2022/06/15 09:48:58;;;;;;;7.63;2.63;;;24.30;60.20;;;;;;5049249;28;20041;-75
2022/06/15 09:51:37;;;;;;;9.57;3.00;;;24.10;60.30;;;;;;5050968;28;20114;-73
2022/06/15 09:54:20;;;;;;;6.63;3.13;;;24.20;58.80;;;;;;5050520;28;20021;-69
2022/06/15 09:56:47;;;;;;;5.30;2.22;;;24.10;59.80;;;;;;5030432;28;20489;-74
2022/06/15 09:59:16;;;;;;;9.57;2.08;;;24.00;61.60;;;;;;5055350;28;20036;-73
2022/06/15 10:01:45;;;;;;;4.88;2.30;;;24.10;61.10;;;;;;5033049;28;20116;-67
2022/06/15 10:04:27;;;;;;;5.18;2.47;;;23.90;62.10;;;;;;5054108;28;20096;-72
2022/06/15 10:07:09;;;;;;;8.38;2.80;;;23.90;61.50;;;;;;5055310;28;20033;-66
2022/06/15 10:09:39;;;;;;;10.02;2.58;;;24.10;59.40;;;;;;5054926;28;20021;-67
2022/06/15 10:15:15;;;;;;;9.38;2.60;;;24.20;59.20;;;;;;5047076;28;20516;-72
2022/06/15 10:17:51;;;;;;;8.18;2.78;;;24.00;63.60;;;;;;5054668;28;20060;-67
2022/06/15 10:20:32;;;;;;;11.82;3.83;;;24.00;62.90;;;;;;5055287;28;20023;-66
2022/06/15 10:23:05;;;;;;;9.10;3.15;;;24.00;61.40;;;;;;5048685;28;20045;-72
2022/06/15 10:25:47;;;;;;;10.43;3.55;;;24.00;62.80;;;;;;5045902;28;20031;-74
2022/06/15 10:28:20;;;;;;;6.63;3.17;;;24.10;60.60;;;;;;5027454;28;20163;-75
2022/06/15 10:31:14;;;;;;;10.23;3.35;;;24.10;64.10;;;;;;5047542;28;20029;-68
2022/06/15 10:33:50;;;;;;;8.90;3.40;;;24.10;62.30;;;;;;5041996;28;20049;-68
2022/06/15 10:36:46;;;;;;;7.80;2.95;;;24.10;62.80;;;;;;5034808;28;20065;-72
2022/06/15 10:39:34;;;;;;;6.68;3.30;;;24.10;62.00;;;;;;5040926;28;20037;-70
2022/06/15 10:42:28;;;;;;;10.05;3.45;;;24.20;62.60;;;;;;5053125;28;20025;-66
2022/06/15 10:45:00;;;;;;;8.65;2.83;;;24.10;64.80;;;;;;5040209;28;20025;-73
2022/06/15 10:47:48;;;;;;;9.35;2.97;;;24.00;64.80;;;;;;5040926;28;20037;-67
2022/06/15 10:50:26;;;;;;;10.85;3.17;;;24.00;67.10;;;;;;5053812;28;20392;-73
2022/06/15 10:53:01;;;;;;;8.65;2.90;;;24.10;65.90;;;;;;5053188;28;20043;-71
2022/06/15 11:04:23;;;;;;;9.57;3.42;;;24.10;65.50;;;;;;5051464;28;20067;-68
2022/06/15 11:07:01;;;;;;;11.57;4.00;;;24.20;60.50;;;;;;5047459;28;20021;-68
2022/06/15 11:09:43;;;;;;;10.73;3.42;;;24.20;63.60;;;;;;5042104;28;20025;-73
2022/06/15 11:12:26;;;;;;;8.93;2.28;;;24.20;61.70;;;;;;5033835;28;20021;-69
2022/06/15 11:15:15;;;;;;;8.45;2.75;;;24.10;66.80;;;;;;5048050;28;20377;-70
2022/06/15 11:18:03;;;;;;;8.63;2.80;;;24.10;67.30;;;;;;5020339;28;20069;-69
2022/06/15 11:20:44;;;;;;;8.07;3.10;;;24.10;66.10;;;;;;5052561;28;20052;-69
2022/06/15 11:23:29;;;;;;;11.43;3.03;;;24.10;62.20;;;;;;5034506;28;20029;-70
2022/06/15 11:29:09;;;;;;;8.13;2.50;;;24.30;61.20;;;;;;5051104;28;20032;-69
2022/06/15 11:31:37;;;;;;;7.30;2.20;;;24.20;64.10;;;;;;5047654;28;20094;-68
2022/06/15 11:34:09;;;;;;;9.07;2.05;;;24.20;65.90;;;;;;5051391;28;20108;-68
2022/06/15 11:36:48;;;;;;;9.90;3.53;;;24.10;66.20;;;;;;5053601;28;20500;-70
2022/06/15 11:39:33;;;;;;;10.13;3.65;;;24.30;61.10;;;;;;5052842;28;20104;-67
2022/06/15 11:42:00;;;;;;;7.95;2.45;;;24.40;60.60;;;;;;5053249;28;20080;-71
2022/06/15 11:44:34;;;;;;;11.38;1.88;;;24.30;63.80;;;;;;5039566;28;20086;-70
2022/06/15 11:47:05;;;;;;;9.10;2.28;;;24.20;64.40;;;;;;5041281;28;20145;-67
2022/06/15 11:49:37;;;;;;;4.50;2.03;;;24.30;64.30;;;;;;5050231;28;20025;-69
2022/06/15 11:52:22;;;;;;;10.48;2.75;;;24.30;63.90;;;;;;5052747;28;20033;-71
2022/06/15 11:55:15;;;;;;;7.28;2.55;;;24.30;63.00;;;;;;5049499;28;20045;-68
2022/06/15 11:58:12;;;;;;;7.80;3.17;;;24.30;63.00;;;;;;5046311;28;20438;-72
2022/06/15 12:00:53;;;;;;;7.72;2.65;;;24.40;60.40;;;;;;5043363;28;20473;-68
2022/06/15 12:04:00;;;;;;;10.25;3.58;;;24.40;62.00;;;;;;5043634;28;20029;-71
2022/06/15 12:07:06;;;;;;;6.32;2.33;;;24.40;60.50;;;;;;5031176;28;20066;-70
2022/06/15 12:09:37;;;;;;;8.63;2.95;;;24.40;62.10;;;;;;4982642;28;20051;-68
2022/06/15 12:15:24;;;;;;;5.28;1.92;;;24.40;62.30;;;;;;5026907;28;20048;-70
2022/06/15 12:18:13;;;;;;;6.95;1.88;;;24.40;63.40;;;;;;5047002;28;20037;-71
2022/06/15 12:21:14;;;;;;;6.63;2.83;;;24.40;63.20;;;;;;5046465;28;20033;-71
2022/06/15 12:23:59;;;;;;;7.63;2.53;;;24.50;61.80;;;;;;5044685;28;20486;-72
2022/06/15 12:26:53;;;;;;;6.45;2.10;;;24.40;62.90;;;;;;5046625;28;20496;-66
2022/06/15 12:29:32;;;;;;;8.88;2.10;;;24.50;63.50;;;;;;5009589;28;20037;-70
2022/06/15 12:32:22;;;;;;;7.10;2.20;;;24.50;63.30;;;;;;5044303;28;20112;-65
2022/06/15 12:35:12;;;;;;;6.60;2.05;;;24.40;63.40;;;;;;5044887;28;20033;-65
2022/06/15 12:37:41;;;;;;;5.93;2.10;;;24.50;62.60;;;;;;5049797;28;20117;-65
2022/06/15 12:40:27;;;;;;;4.90;1.77;;;24.40;63.80;;;;;;5047522;28;20025;-70
2022/06/15 12:43:04;;;;;;;8.98;1.77;;;24.40;64.40;;;;;;5048700;28;20029;-68
2022/06/15 12:45:34;;;;;;;8.73;2.20;;;24.40;64.50;;;;;;5047130;28;20108;-71
2022/06/15 12:48:07;;;;;;;9.85;2.30;;;24.50;63.50;;;;;;5050491;28;20127;-65
2022/06/15 12:50:48;;;;;;;7.47;1.52;;;24.60;63.50;;;;;;5046766;28;20025;-70
2022/06/15 12:53:43;;;;;;;5.40;1.85;;;24.60;64.10;;;;;;5046064;28;20470;-64
2022/06/15 12:56:35;;;;;;;7.60;3.35;;;24.50;64.60;;;;;;5046334;28;20150;-65
2022/06/15 12:59:23;;;;;;;;;;;24.60;58.80;;;;;;5049178;28;20037;-65
2022/06/15 13:02:03;;;;;;;9.25;2.83;;;24.60;60.60;;;;;;5043107;28;19919;-68
2022/06/15 13:04:53;;;;;;;8.40;2.85;;;24.60;59.80;;;;;;5041648;28;20036;-67
2022/06/15 13:07:26;;;;;;;7.50;2.03;;;24.70;57.40;;;;;;5044934;28;20075;-69
2022/06/15 13:10:07;;;;;;;6.43;2.80;;;24.70;58.80;;;;;;5049197;28;20053;-79
2022/06/15 13:12:42;;;;;;;7.97;2.47;;;24.70;59.60;;;;;;5049591;28;20057;-73
2022/06/15 13:15:42;;;;;;;7.45;2.30;;;24.80;58.60;;;;;;5048344;28;20044;-74
2022/06/15 13:18:11;;;;;;;7.18;2.03;;;24.80;58.70;;;;;;5049308;28;20478;-75
2022/06/15 13:20:46;;;;;;;7.47;2.40;;;24.80;58.70;;;;;;5045862;28;20071;-73
2022/06/15 13:23:16;;;;;;;7.22;2.03;;;24.80;56.80;;;;;;5050062;28;20060;-75
2022/06/15 13:25:54;;;;;;;10.60;1.92;;;24.80;57.20;;;;;;5052976;28;20036;-74
2022/06/15 13:28:22;;;;;;;9.05;2.72;;;24.80;58.50;;;;;;5051720;28;20017;-74
2022/06/15 13:30:47;;;;;;;10.27;2.03;;;24.90;56.90;;;;;;5051749;28;20029;-74
2022/06/15 13:33:14;;;;;;;8.57;2.20;;;24.80;58.70;;;;;;5057600;28;20021;-72
2022/06/15 13:36:06;;;;;;;6.13;2.30;;;24.90;60.50;;;;;;5046396;28;20485;-77
2022/06/15 13:38:36;;;;;;;6.72;2.30;;;24.90;57.70;;;;;;5047385;28;20025;-75
2022/06/15 13:41:02;;;;;;;7.50;2.03;;;24.90;55.80;;;;;;5050882;28;20071;-75